Time;durP1;ratioP1;P1;durP2;ratioP2;P2;SDS_P1;SDS_P2;PMS_P1;PMS_P2;Temp;Humidity;BMP_temperature;BMP_pressure;BME280_temperature;BME280_humidity;BME280_pressure;Samples;Min_cycle;Max_cycle;Signal;HPM_P1;HPM_P2
2023/09/07 00:01:26;;;;;;;11.27;8.27;;;14.70;99.90;;;;;;4898390;29;20204;-68
2023/09/07 00:03:52;;;;;;;13.53;8.17;;;14.70;99.90;;;;;;4898221;29;20203;-68
2023/09/07 00:06:19;;;;;;;10.50;7.90;;;14.60;99.90;;;;;;4897719;29;20239;-68
2023/09/07 00:08:45;;;;;;;10.40;8.50;;;14.50;99.90;;;;;;4898605;29;20203;-68
2023/09/07 00:11:12;;;;;;;10.23;8.50;;;14.40;99.90;;;;;;4898566;29;20254;-68
2023/09/07 00:13:39;;;;;;;9.73;8.40;;;14.40;99.90;;;;;;4898167;29;20199;-68
2023/09/07 00:16:07;;;;;;;11.17;8.87;;;14.10;99.90;;;;;;4897892;29;20690;-68
2023/09/07 00:18:34;;;;;;;11.97;8.70;;;14.00;99.90;;;;;;4898023;29;20218;-68
2023/09/07 00:21:01;;;;;;;10.23;8.33;;;13.90;99.90;;;;;;4897917;29;20204;-68
2023/09/07 00:23:28;;;;;;;10.20;8.43;;;13.80;99.90;;;;;;4898191;29;20207;-68
2023/09/07 00:25:54;;;;;;;10.13;9.20;;;13.60;99.90;;;;;;4897818;29;20275;-68
2023/09/07 00:28:21;;;;;;;9.50;8.60;;;13.90;99.90;;;;;;4897935;29;20226;-68
2023/09/07 00:30:47;;;;;;;9.97;7.67;;;13.90;99.90;;;;;;4897933;29;20203;-68
2023/09/07 00:33:15;;;;;;;12.83;9.43;;;13.80;99.90;;;;;;4897741;29;20263;-68
2023/09/07 00:35:41;;;;;;;10.33;9.30;;;13.80;99.90;;;;;;4897474;29;20238;-68
2023/09/07 00:38:08;;;;;;;11.10;9.77;;;13.70;99.90;;;;;;4897927;29;20861;-68
2023/09/07 00:40:35;;;;;;;11.40;10.23;;;13.60;99.90;;;;;;4898432;29;20203;-68
2023/09/07 00:43:04;;;;;;;11.87;10.60;;;13.50;99.90;;;;;;4897802;29;20206;-68
2023/09/07 00:45:31;;;;;;;12.00;10.80;;;13.40;99.90;;;;;;4897652;29;20308;-69
2023/09/07 00:47:57;;;;;;;14.77;10.73;;;13.30;99.90;;;;;;4897617;29;20249;-68
2023/09/07 00:50:25;;;;;;;11.93;10.37;;;13.20;99.90;;;;;;4897872;29;20345;-68
2023/09/07 00:52:52;;;;;;;12.57;10.60;;;13.10;99.90;;;;;;4897705;29;20240;-68
2023/09/07 00:55:19;;;;;;;11.77;10.53;;;13.20;99.90;;;;;;4897575;29;20235;-68
2023/09/07 00:57:46;;;;;;;11.87;10.53;;;13.40;99.90;;;;;;4897623;29;20207;-68
2023/09/07 01:00:13;;;;;;;12.93;10.80;;;13.20;99.90;;;;;;4897508;29;20203;-68
2023/09/07 01:02:42;;;;;;;12.37;11.07;;;13.10;99.90;;;;;;4897459;29;20258;-68
2023/09/07 01:05:09;;;;;;;12.33;11.13;;;13.00;99.90;;;;;;4897811;29;20290;-68
2023/09/07 01:07:41;;;;;;;15.17;11.20;;;13.00;99.90;;;;;;4897505;29;20290;-68
2023/09/07 01:10:09;;;;;;;12.40;11.10;;;12.90;99.90;;;;;;4897750;29;20263;-68
2023/09/07 01:12:35;;;;;;;12.10;10.80;;;12.90;99.90;;;;;;4897528;29;20259;-68
2023/09/07 01:15:05;;;;;;;12.57;11.37;;;13.10;99.90;;;;;;4897375;29;20223;-68
2023/09/07 01:17:32;;;;;;;12.87;11.00;;;13.20;99.90;;;;;;4900020;29;20203;-68
2023/09/07 01:20:05;;;;;;;12.37;11.07;;;13.10;99.90;;;;;;4901452;29;20259;-69
2023/09/07 01:22:34;;;;;;;13.30;11.03;;;13.10;99.90;;;;;;4901273;29;20203;-68
2023/09/07 01:25:02;;;;;;;14.53;11.07;;;13.30;99.90;;;;;;4901131;29;20207;-68
2023/09/07 01:27:28;;;;;;;12.13;10.93;;;13.30;99.90;;;;;;4901032;29;20227;-68
2023/09/07 01:29:55;;;;;;;12.07;10.40;;;13.30;99.90;;;;;;4901123;29;20318;-68
2023/09/07 01:32:22;;;;;;;11.40;10.30;;;13.30;99.90;;;;;;4901235;29;20215;-68
2023/09/07 01:34:49;;;;;;;11.33;10.13;;;13.20;99.90;;;;;;4901184;29;20203;-68
2023/09/07 01:37:15;;;;;;;13.13;10.27;;;13.30;99.90;;;;;;4901005;29;20207;-68
2023/09/07 01:39:43;;;;;;;11.73;10.03;;;13.00;99.90;;;;;;4901040;29;20206;-68
2023/09/07 01:42:10;;;;;;;13.47;10.23;;;12.90;99.90;;;;;;4900863;29;20199;-68
2023/09/07 01:44:38;;;;;;;11.43;10.23;;;13.00;99.90;;;;;;4901100;29;20258;-68
2023/09/07 01:47:04;;;;;;;10.93;9.83;;;12.80;99.90;;;;;;4900872;29;20203;-68
2023/09/07 01:49:31;;;;;;;11.50;10.30;;;12.70;99.90;;;;;;4900734;29;20207;-68
2023/09/07 01:51:58;;;;;;;13.20;10.90;;;12.60;99.90;;;;;;4900691;29;20543;-68
2023/09/07 01:54:24;;;;;;;12.73;10.50;;;12.60;99.90;;;;;;4900365;29;20243;-68
2023/09/07 01:56:52;;;;;;;12.27;10.93;;;12.60;99.90;;;;;;4900403;29;20203;-68
2023/09/07 01:59:19;;;;;;;11.83;10.53;;;12.60;99.90;;;;;;4900278;29;20603;-68
2023/09/07 02:01:45;;;;;;;11.60;10.47;;;12.40;99.90;;;;;;4900516;29;20203;-68
2023/09/07 02:04:12;;;;;;;13.70;10.60;;;12.60;99.90;;;;;;4900390;29;20203;-68
2023/09/07 02:06:39;;;;;;;14.77;10.60;;;12.70;99.90;;;;;;4900501;29;20275;-68
2023/09/07 02:09:05;;;;;;;14.13;10.93;;;12.60;99.90;;;;;;4900282;29;20698;-69
2023/09/07 02:11:32;;;;;;;11.70;10.60;;;12.40;99.90;;;;;;4900402;29;20737;-68
2023/09/07 02:14:00;;;;;;;13.87;11.30;;;12.30;99.90;;;;;;4900504;29;20251;-68
2023/09/07 02:16:27;;;;;;;13.70;12.27;;;12.20;99.90;;;;;;4900488;29;20251;-68
2023/09/07 02:19:01;;;;;;;13.33;11.67;;;12.20;99.90;;;;;;4900363;29;20217;-68
2023/09/07 02:21:28;;;;;;;12.63;11.37;;;12.30;99.90;;;;;;4900374;29;20326;-68
2023/09/07 02:23:55;;;;;;;12.07;10.97;;;12.50;99.90;;;;;;4900117;29;20259;-68
2023/09/07 02:26:21;;;;;;;14.50;12.13;;;12.60;99.90;;;;;;4900340;29;20232;-68
2023/09/07 02:28:48;;;;;;;14.07;10.77;;;12.50;99.90;;;;;;4900169;29;20299;-68
2023/09/07 02:31:16;;;;;;;12.27;11.00;;;12.40;99.90;;;;;;4900127;29;20247;-68
2023/09/07 02:33:42;;;;;;;12.53;11.20;;;12.40;99.90;;;;;;4900225;29;20206;-68
2023/09/07 02:36:09;;;;;;;12.53;10.90;;;12.30;99.90;;;;;;4899986;29;20611;-68
2023/09/07 02:38:35;;;;;;;12.73;11.47;;;12.40;99.90;;;;;;4899744;29;20283;-69
2023/09/07 02:41:03;;;;;;;14.03;12.53;;;12.40;99.90;;;;;;4900131;29;20229;-69
2023/09/07 02:43:29;;;;;;;14.27;12.80;;;12.30;99.90;;;;;;4899900;29;20203;-69
2023/09/07 02:45:56;;;;;;;17.30;11.97;;;12.40;99.90;;;;;;4899880;29;20218;-69
2023/09/07 02:48:24;;;;;;;13.87;12.57;;;12.40;99.90;;;;;;4899701;29;20295;-69
2023/09/07 02:50:50;;;;;;;14.27;12.27;;;12.40;99.90;;;;;;4899643;29;20651;-69
2023/09/07 02:53:17;;;;;;;14.00;11.27;;;12.40;99.90;;;;;;4899418;29;20207;-69
2023/09/07 02:55:44;;;;;;;16.03;11.60;;;12.20;99.90;;;;;;4899577;29;20773;-68
2023/09/07 02:58:10;;;;;;;14.07;12.63;;;12.00;99.90;;;;;;4899638;29;20256;-69
2023/09/07 03:00:44;;;;;;;13.50;12.20;;;11.90;99.90;;;;;;4899612;29;20199;-69
2023/09/07 03:03:11;;;;;;;15.03;12.53;;;11.90;99.90;;;;;;4899475;29;20215;-68
2023/09/07 03:05:39;;;;;;;18.87;16.90;;;11.80;99.90;;;;;;4899382;29;20207;-68
2023/09/07 03:08:06;;;;;;;15.30;13.77;;;11.90;99.90;;;;;;4899444;29;20234;-68
2023/09/07 03:10:33;;;;;;;16.07;13.20;;;11.90;99.90;;;;;;4899521;29;20563;-68
2023/09/07 03:12:59;;;;;;;16.90;12.73;;;12.00;99.90;;;;;;4899266;29;20659;-68
2023/09/07 03:15:26;;;;;;;14.93;13.30;;;12.00;99.90;;;;;;4899303;29;20203;-68
2023/09/07 03:17:53;;;;;;;18.47;13.57;;;11.80;99.90;;;;;;4899179;29;20263;-68
2023/09/07 03:20:19;;;;;;;16.67;13.73;;;11.80;99.90;;;;;;4899155;29;20230;-68
2023/09/07 03:22:48;;;;;;;15.97;13.60;;;11.70;99.90;;;;;;4899327;29;20214;-69
2023/09/07 03:25:15;;;;;;;17.20;13.90;;;11.60;99.90;;;;;;4899130;29;20203;-68
2023/09/07 03:27:41;;;;;;;16.43;14.73;;;11.50;99.90;;;;;;4899250;29;20313;-68
2023/09/07 03:30:08;;;;;;;17.17;14.50;;;11.40;99.90;;;;;;4898954;29;20211;-68
2023/09/07 03:32:35;;;;;;;15.80;13.90;;;11.40;99.90;;;;;;4898673;29;20207;-68
2023/09/07 03:35:06;;;;;;;15.30;13.70;;;11.40;99.90;;;;;;4899019;29;20655;-68
2023/09/07 03:37:33;;;;;;;18.90;15.00;;;11.30;99.90;;;;;;4898794;29;20242;-68
2023/09/07 03:40:01;;;;;;;18.63;13.77;;;11.20;99.90;;;;;;4898327;29;20254;-68
2023/09/07 03:42:27;;;;;;;15.30;13.80;;;11.20;99.90;;;;;;4898696;29;20259;-68
2023/09/07 03:44:54;;;;;;;18.70;14.30;;;11.10;99.90;;;;;;4898609;29;20259;-68
2023/09/07 03:47:21;;;;;;;17.70;15.00;;;11.10;99.90;;;;;;4898567;29;20203;-68
2023/09/07 03:49:47;;;;;;;16.87;15.17;;;11.10;99.90;;;;;;4898694;29;20242;-68
2023/09/07 03:52:14;;;;;;;15.23;13.73;;;11.10;99.90;;;;;;4898860;29;20221;-68
2023/09/07 03:54:40;;;;;;;14.97;13.50;;;11.10;99.90;;;;;;4898325;29;20294;-68
2023/09/07 03:57:08;;;;;;;15.27;13.67;;;11.00;99.90;;;;;;4898445;29;20203;-68
2023/09/07 03:59:35;;;;;;;17.23;14.37;;;11.10;99.90;;;;;;4898361;29;20612;-68
2023/09/07 04:02:02;;;;;;;16.17;14.23;;;11.00;99.90;;;;;;4898545;29;20203;-68
2023/09/07 04:04:27;;;;;;;16.87;14.30;;;11.00;99.90;;;;;;4898434;29;20203;-68
2023/09/07 04:06:54;;;;;;;15.57;13.87;;;11.00;99.90;;;;;;4898306;29;20251;-69
2023/09/07 04:09:20;;;;;;;15.93;13.87;;;11.00;99.90;;;;;;4898090;29;20237;-69
2023/09/07 04:11:47;;;;;;;14.57;13.10;;;11.10;99.90;;;;;;4898230;29;20203;-69
2023/09/07 04:14:15;;;;;;;16.30;14.60;;;11.20;99.90;;;;;;4897946;29;20206;-68
2023/09/07 04:16:41;;;;;;;15.33;13.83;;;11.10;99.90;;;;;;4898049;29;20211;-69
2023/09/07 04:19:09;;;;;;;14.57;13.10;;;11.30;99.90;;;;;;4898037;29;20211;-69
2023/09/07 04:21:36;;;;;;;17.03;14.80;;;11.60;99.90;;;;;;4898088;29;20207;-69
2023/09/07 04:24:03;;;;;;;17.23;15.00;;;11.70;99.90;;;;;;4897961;29;20203;-69
2023/09/07 04:26:30;;;;;;;16.63;14.73;;;11.70;99.90;;;;;;4897652;29;20255;-69
2023/09/07 04:28:56;;;;;;;16.70;14.50;;;11.70;99.90;;;;;;4897798;29;20231;-69
2023/09/07 04:31:27;;;;;;;17.70;13.77;;;11.80;99.90;;;;;;4897949;29;20202;-69
2023/09/07 04:33:53;;;;;;;15.77;14.10;;;11.70;99.90;;;;;;4898049;29;20213;-69
2023/09/07 04:36:20;;;;;;;19.03;15.57;;;11.70;99.90;;;;;;4897846;29;20207;-69
2023/09/07 04:38:47;;;;;;;17.87;14.30;;;11.60;99.90;;;;;;4897849;29;20207;-69
2023/09/07 04:41:14;;;;;;;17.10;14.07;;;11.40;99.90;;;;;;4897667;29;20233;-69
2023/09/07 04:43:43;;;;;;;16.37;14.67;;;11.30;99.90;;;;;;4897927;29;20266;-69
2023/09/07 04:46:09;;;;;;;17.30;14.10;;;11.40;99.90;;;;;;4897938;29;20234;-69
2023/09/07 04:48:37;;;;;;;16.60;14.03;;;11.40;99.90;;;;;;4897687;29;20594;-69
2023/09/07 04:51:05;;;;;;;15.27;13.67;;;11.30;99.90;;;;;;4896867;29;20697;-69
2023/09/07 04:53:34;;;;;;;15.40;13.77;;;11.20;99.90;;;;;;4897459;29;20231;-68
2023/09/07 04:56:01;;;;;;;15.87;13.83;;;11.10;99.90;;;;;;4897590;29;20290;-68
2023/09/07 04:58:28;;;;;;;18.50;13.67;;;11.00;99.90;;;;;;4897671;29;20203;-69
2023/09/07 05:00:55;;;;;;;15.50;13.90;;;11.30;99.90;;;;;;4897568;29;20555;-69
2023/09/07 05:03:21;;;;;;;16.57;13.37;;;11.30;99.90;;;;;;4897546;29;20208;-69
2023/09/07 05:05:54;;;;;;;15.43;13.83;;;11.30;99.90;;;;;;4897436;29;20210;-68
2023/09/07 05:08:22;;;;;;;15.73;13.30;;;11.20;99.90;;;;;;4897371;29;20564;-68
2023/09/07 05:10:49;;;;;;;16.10;13.13;;;11.10;99.90;;;;;;4897555;29;20263;-68
2023/09/07 05:13:15;;;;;;;15.63;13.93;;;11.20;99.90;;;;;;4897552;29;20271;-68
2023/09/07 05:15:48;;;;;;;16.87;13.23;;;11.30;99.90;;;;;;4897389;29;20663;-69
2023/09/07 05:18:15;;;;;;;17.33;14.00;;;11.30;99.90;;;;;;4897516;29;20293;-68
2023/09/07 05:20:42;;;;;;;17.77;15.17;;;11.20;99.90;;;;;;4897252;29;20259;-68
2023/09/07 05:23:09;;;;;;;18.93;15.03;;;11.30;99.90;;;;;;4897303;29;20207;-70
2023/09/07 05:25:44;;;;;;;19.73;16.57;;;11.30;99.90;;;;;;4897504;29;20289;-68
2023/09/07 05:28:10;;;;;;;19.10;16.37;;;11.30;99.90;;;;;;4897329;29;20203;-68
2023/09/07 05:30:37;;;;;;;17.27;15.33;;;11.40;99.90;;;;;;4897404;29;20215;-68
2023/09/07 05:33:04;;;;;;;17.23;14.80;;;11.40;99.90;;;;;;4897112;29;20207;-68
2023/09/07 05:35:32;;;;;;;17.13;15.33;;;11.40;99.90;;;;;;4897043;29;20291;-68
2023/09/07 05:37:59;;;;;;;15.77;14.03;;;11.50;99.90;;;;;;4897331;29;20208;-69
2023/09/07 05:40:27;;;;;;;19.73;15.10;;;11.60;99.90;;;;;;4897240;29;20419;-69
2023/09/07 05:42:54;;;;;;;16.97;15.17;;;11.60;99.90;;;;;;4897284;29;20199;-69
2023/09/07 05:45:20;;;;;;;16.97;15.23;;;11.70;99.90;;;;;;4897235;29;20632;-69
2023/09/07 05:47:47;;;;;;;16.20;14.47;;;11.80;99.90;;;;;;4897167;29;20214;-70
2023/09/07 05:50:14;;;;;;;16.73;14.93;;;11.80;99.90;;;;;;4896998;29;20231;-70
2023/09/07 05:52:40;;;;;;;17.07;15.33;;;11.90;99.90;;;;;;4896890;29;20215;-71
2023/09/07 05:55:08;;;;;;;18.37;14.03;;;12.00;99.90;;;;;;4896905;29;20238;-70
2023/09/07 05:57:36;;;;;;;15.53;13.27;;;12.10;99.90;;;;;;4896824;29;20624;-70
2023/09/07 06:00:04;;;;;;;15.47;13.60;;;12.10;99.90;;;;;;4897140;29;20211;-68
2023/09/07 06:02:31;;;;;;;14.03;12.60;;;12.20;99.90;;;;;;4897950;29;20203;-70
2023/09/07 06:04:57;;;;;;;14.20;12.80;;;12.30;99.90;;;;;;4900576;29;20266;-70
2023/09/07 06:07:24;;;;;;;17.23;13.40;;;12.30;99.90;;;;;;4900581;29;20576;-69
2023/09/07 06:09:50;;;;;;;16.40;13.33;;;12.40;99.90;;;;;;4900536;29;20278;-69
2023/09/07 06:12:17;;;;;;;14.10;12.60;;;12.50;99.90;;;;;;4900598;29;20211;-69
2023/09/07 06:14:46;;;;;;;14.00;12.60;;;12.60;99.90;;;;;;4900350;29;20662;-69
2023/09/07 06:17:12;;;;;;;13.87;12.47;;;12.80;99.90;;;;;;4900522;29;20199;-69
2023/09/07 06:19:40;;;;;;;14.57;13.13;;;12.90;99.90;;;;;;4900272;29;20203;-69
2023/09/07 06:22:06;;;;;;;16.67;14.27;;;13.00;99.90;;;;;;4900021;29;20211;-69
2023/09/07 06:24:33;;;;;;;15.50;13.90;;;13.10;99.90;;;;;;4900149;29;20263;-69
2023/09/07 06:27:00;;;;;;;16.93;14.73;;;13.20;99.90;;;;;;4900207;29;20207;-68
2023/09/07 06:29:26;;;;;;;15.53;13.93;;;13.40;99.90;;;;;;4899933;29;20694;-69
2023/09/07 06:31:54;;;;;;;15.30;13.67;;;13.50;99.90;;;;;;4900009;29;20270;-68
2023/09/07 06:34:21;;;;;;;15.33;13.73;;;13.70;99.90;;;;;;4900015;29;20270;-68
2023/09/07 06:36:48;;;;;;;15.30;13.80;;;13.80;99.90;;;;;;4899916;29;20667;-69
2023/09/07 06:39:14;;;;;;;17.27;13.60;;;13.90;99.90;;;;;;4899786;29;20267;-68
2023/09/07 06:41:41;;;;;;;16.40;13.87;;;14.10;99.90;;;;;;4899734;29;20279;-68
2023/09/07 06:44:08;;;;;;;15.83;14.10;;;14.30;99.90;;;;;;4899648;29;20651;-69
2023/09/07 06:46:35;;;;;;;16.87;13.30;;;14.50;99.90;;;;;;4900061;29;20207;-69
2023/09/07 06:49:04;;;;;;;15.13;13.63;;;14.60;99.90;;;;;;4899837;29;20230;-68
2023/09/07 06:51:31;;;;;;;18.67;13.30;;;14.80;99.90;;;;;;4900029;29;20209;-70
2023/09/07 06:53:58;;;;;;;14.50;13.07;;;15.00;99.90;;;;;;4899201;29;20227;-70
2023/09/07 06:56:26;;;;;;;14.57;13.00;;;15.20;99.90;;;;;;4899549;29;20206;-70
2023/09/07 06:58:53;;;;;;;13.87;12.37;;;15.40;99.90;;;;;;4899442;29;20262;-68
2023/09/07 07:01:19;;;;;;;13.68;12.18;;;15.70;99.90;;;;;;4899680;29;20195;-68
2023/09/07 07:03:46;;;;;;;14.00;12.55;;;15.90;99.90;;;;;;4899377;29;20654;-68
2023/09/07 07:06:14;;;;;;;14.60;12.02;;;16.00;99.90;;;;;;4899321;29;20659;-68
2023/09/07 07:08:41;;;;;;;13.90;11.70;;;16.20;99.90;;;;;;4899087;29;20266;-68
2023/09/07 07:11:07;;;;;;;14.65;12.02;;;16.40;99.90;;;;;;4899283;29;20211;-68
2023/09/07 07:13:34;;;;;;;13.77;11.93;;;16.60;99.90;;;;;;4898690;29;20556;-68
2023/09/07 07:16:00;;;;;;;12.35;11.15;;;16.80;99.90;;;;;;4899054;29;20203;-68
2023/09/07 07:18:27;;;;;;;13.32;11.05;;;17.10;99.90;;;;;;4899325;29;20203;-68
2023/09/07 07:20:54;;;;;;;17.05;10.85;;;17.30;99.90;;;;;;4899170;29;20214;-68
2023/09/07 07:23:22;;;;;;;14.82;10.95;;;17.50;99.90;;;;;;4899110;29;20254;-68
2023/09/07 07:25:48;;;;;;;12.02;10.75;;;17.70;99.90;;;;;;4899095;29;20203;-68
2023/09/07 07:28:15;;;;;;;16.90;10.40;;;17.80;99.90;;;;;;4898999;29;20211;-68
2023/09/07 07:30:41;;;;;;;14.80;11.02;;;18.00;99.90;;;;;;4899009;29;20263;-68
2023/09/07 07:33:09;;;;;;;12.02;10.30;;;18.20;99.90;;;;;;4898906;29;20607;-68
2023/09/07 07:35:36;;;;;;;13.05;10.77;;;18.30;99.90;;;;;;4899011;29;20200;-68
2023/09/07 07:38:04;;;;;;;13.80;10.05;;;18.50;99.90;;;;;;4898820;29;20207;-70
2023/09/07 07:40:32;;;;;;;10.38;9.43;;;18.70;99.90;;;;;;4898710;29;20207;-68
2023/09/07 07:42:59;;;;;;;9.40;8.35;;;18.90;99.90;;;;;;4899021;29;20207;-68
2023/09/07 07:45:25;;;;;;;9.95;7.85;;;19.10;99.90;;;;;;4898766;29;20564;-68
2023/09/07 07:47:52;;;;;;;8.45;7.68;;;19.20;99.90;;;;;;4898467;29;20235;-68
2023/09/07 07:50:19;;;;;;;10.80;8.40;;;19.40;99.90;;;;;;4898420;29;20259;-68
2023/09/07 07:52:46;;;;;;;9.02;8.05;;;19.70;99.90;;;;;;4898450;29;20259;-68
2023/09/07 07:55:13;;;;;;;9.60;8.20;;;19.70;99.90;;;;;;4908005;29;20748;-68
2023/09/07 07:57:41;;;;;;;8.77;7.30;;;19.90;99.90;;;;;;4917597;29;20286;-68
2023/09/07 08:00:08;;;;;;;9.70;6.95;;;20.10;99.90;;;;;;4917438;29;20261;-68
2023/09/07 08:02:35;;;;;;;8.40;7.60;;;20.30;99.90;;;;;;4917275;29;20202;-68
2023/09/07 08:05:02;;;;;;;8.85;7.93;;;20.50;99.90;;;;;;4917196;29;20738;-68
2023/09/07 08:07:28;;;;;;;7.93;6.90;;;20.50;99.90;;;;;;4917141;29;20237;-68
2023/09/07 08:09:55;;;;;;;7.47;6.78;;;20.60;99.90;;;;;;4916886;29;20237;-68
2023/09/07 08:12:21;;;;;;;7.55;6.85;;;20.70;99.90;;;;;;4917000;29;20233;-68
2023/09/07 08:14:49;;;;;;;7.63;6.75;;;21.00;99.90;;;;;;4917144;29;20207;-69
2023/09/07 08:17:16;;;;;;;7.03;6.45;;;21.10;99.90;;;;;;4917085;29;20202;-68
2023/09/07 08:19:43;;;;;;;9.27;6.43;;;21.30;99.90;;;;;;4917002;29;20210;-68
2023/09/07 08:22:10;;;;;;;7.88;7.18;;;21.50;99.90;;;;;;4917028;29;20207;-68
2023/09/07 08:24:37;;;;;;;7.10;6.40;;;21.50;99.90;;;;;;4917116;29;20212;-68
2023/09/07 08:27:04;;;;;;;7.18;6.35;;;21.70;99.90;;;;;;4916966;29;20551;-68
2023/09/07 08:29:32;;;;;;;7.20;6.50;;;21.80;99.90;;;;;;4916989;29;20230;-68
2023/09/07 08:32:03;;;;;;;6.82;6.22;;;21.90;99.90;;;;;;4917044;29;20206;-68
2023/09/07 08:34:31;;;;;;;6.90;6.20;;;22.20;99.90;;;;;;4916902;29;20202;-69
2023/09/07 08:36:59;;;;;;;10.70;6.20;;;22.40;99.90;;;;;;4916709;29;20199;-68
2023/09/07 08:39:25;;;;;;;7.28;6.40;;;22.60;99.90;;;;;;4916951;29;20307;-69
2023/09/07 08:41:52;;;;;;;6.85;6.25;;;22.80;99.90;;;;;;4916952;29;20199;-69
2023/09/07 08:44:20;;;;;;;6.55;5.95;;;22.80;99.90;;;;;;4917180;29;20594;-69
2023/09/07 08:46:47;;;;;;;6.75;6.10;;;23.00;99.90;;;;;;4916793;29;20206;-69
2023/09/07 08:49:19;;;;;;;6.25;5.65;;;23.10;99.90;;;;;;4916462;29;20206;-69
2023/09/07 08:51:46;;;;;;;6.30;5.70;;;23.40;99.90;;;;;;4916868;29;20199;-69
2023/09/07 08:54:13;;;;;;;6.88;5.63;;;23.60;99.90;;;;;;4916712;29;20242;-69
2023/09/07 08:56:40;;;;;;;6.88;5.68;;;23.50;99.90;;;;;;4916770;29;20202;-69
2023/09/07 08:59:07;;;;;;;6.68;5.55;;;23.60;99.90;;;;;;4916609;29;20244;-68
2023/09/07 09:01:33;;;;;;;5.07;4.68;;;23.90;99.90;;;;;;4916607;29;20202;-68
2023/09/07 09:04:00;;;;;;;5.25;4.85;;;24.10;99.90;;;;;;4916442;29;20198;-68
2023/09/07 09:06:28;;;;;;;5.85;4.78;;;24.10;99.90;;;;;;4916623;29;20206;-70
2023/09/07 09:08:57;;;;;;;5.72;5.22;;;24.30;99.90;;;;;;4916643;29;20202;-70
2023/09/07 09:11:25;;;;;;;5.82;5.10;;;24.40;99.90;;;;;;4916620;29;20226;-69
2023/09/07 09:13:53;;;;;;;5.57;5.18;;;24.50;99.90;;;;;;4916515;29;20262;-69
2023/09/07 09:16:20;;;;;;;6.38;5.07;;;24.70;99.90;;;;;;4916472;29;20208;-69
2023/09/07 09:18:51;;;;;;;8.07;5.10;;;24.80;99.90;;;;;;4916610;29;20254;-69
2023/09/07 09:21:18;;;;;;;4.80;4.40;;;24.80;99.80;;;;;;4916506;29;20217;-69
2023/09/07 09:23:49;;;;;;;5.22;4.80;;;25.00;98.80;;;;;;4916453;29;20198;-69
2023/09/07 09:26:16;;;;;;;5.43;5.03;;;25.10;98.10;;;;;;4916670;29;20205;-69
2023/09/07 09:28:44;;;;;;;6.30;4.80;;;25.40;98.20;;;;;;4916251;29;20202;-69
2023/09/07 09:31:12;;;;;;;5.50;5.00;;;25.60;97.50;;;;;;4916391;29;20230;-69
2023/09/07 09:33:39;;;;;;;5.22;4.82;;;25.60;96.80;;;;;;4916321;29;20238;-69
2023/09/07 09:36:07;;;;;;;5.85;5.35;;;25.80;96.00;;;;;;4916364;29;20230;-69
2023/09/07 09:38:34;;;;;;;5.30;4.80;;;25.90;95.80;;;;;;4918843;29;20266;-70
2023/09/07 09:41:03;;;;;;;8.02;5.18;;;26.20;95.20;;;;;;4919956;29;20199;-69
2023/09/07 09:43:30;;;;;;;7.13;4.70;;;26.20;95.20;;;;;;4919703;29;20551;-69
2023/09/07 09:45:58;;;;;;;5.32;4.82;;;26.30;94.70;;;;;;4919986;29;20268;-69
2023/09/07 09:48:24;;;;;;;5.47;4.97;;;26.50;93.80;;;;;;4919909;29;20291;-69
2023/09/07 09:50:51;;;;;;;6.53;4.57;;;26.70;93.80;;;;;;4919791;29;20237;-69
2023/09/07 09:53:20;;;;;;;5.20;4.25;;;27.20;93.10;;;;;;4919502;29;20534;-69
2023/09/07 09:55:47;;;;;;;5.40;4.72;;;27.30;92.80;;;;;;4919876;29;20252;-69
2023/09/07 09:58:16;;;;;;;5.18;4.70;;;27.00;92.00;;;;;;4919841;29;20202;-69
2023/09/07 10:00:44;;;;;;;6.43;4.57;;;27.20;92.00;;;;;;4919717;29;20251;-69
2023/09/07 10:03:23;;;;;;;5.18;4.43;;;27.50;91.80;;;;;;4919686;29;20254;-69
2023/09/07 10:05:50;;;;;;;5.82;4.78;;;27.90;91.10;;;;;;4919361;29;20206;-69
2023/09/07 10:08:18;;;;;;;8.48;5.10;;;28.40;91.50;;;;;;4919436;29;20211;-69
2023/09/07 10:10:48;;;;;;;5.00;4.57;;;28.80;90.40;;;;;;4919532;29;20260;-69
2023/09/07 10:13:17;;;;;;;5.13;4.63;;;29.00;88.70;;;;;;4919582;29;20202;-69
2023/09/07 10:15:44;;;;;;;5.28;4.78;;;29.20;87.80;;;;;;4919425;29;20262;-69
2023/09/07 10:18:12;;;;;;;6.28;4.80;;;29.40;87.70;;;;;;4919530;29;20664;-69
2023/09/07 10:20:52;;;;;;;6.95;4.88;;;29.60;86.10;;;;;;4919213;29;20206;-69
2023/09/07 10:23:19;;;;;;;4.80;4.40;;;29.60;82.60;;;;;;4919417;29;20205;-70
2023/09/07 10:25:50;;;;;;;5.20;4.03;;;30.10;82.00;;;;;;4919249;29;20205;-70
2023/09/07 10:28:23;;;;;;;7.28;4.60;;;30.40;80.40;;;;;;4919202;29;20201;-70
2023/09/07 10:31:02;;;;;;;6.72;4.25;;;30.80;79.60;;;;;;4919071;29;20226;-70
2023/09/07 10:33:28;;;;;;;7.72;4.78;;;31.30;78.40;;;;;;4918845;29;20253;-70
2023/09/07 10:35:55;;;;;;;5.00;4.07;;;31.40;76.10;;;;;;4919096;29;20206;-70
2023/09/07 10:38:21;;;;;;;5.13;4.35;;;32.00;73.60;;;;;;4919136;29;20274;-70
2023/09/07 10:40:48;;;;;;;4.13;3.72;;;31.90;71.00;;;;;;4918934;29;20257;-70
2023/09/07 10:43:15;;;;;;;4.72;4.32;;;31.80;68.90;;;;;;4918823;29;20650;-70
2023/09/07 10:45:46;;;;;;;4.53;4.10;;;32.30;68.80;;;;;;4918845;29;20261;-70
2023/09/07 10:48:13;;;;;;;7.00;4.20;;;33.20;63.70;;;;;;4918534;29;20201;-70
2023/09/07 10:50:44;;;;;;;4.32;3.90;;;32.90;63.20;;;;;;4917808;29;20229;-70
2023/09/07 10:53:13;;;;;;;5.30;4.20;;;33.10;61.00;;;;;;4918617;29;20204;-70
2023/09/07 10:55:40;;;;;;;5.03;3.90;;;33.40;59.60;;;;;;4918688;29;20584;-70
2023/09/07 10:58:08;;;;;;;4.03;3.70;;;34.00;58.50;;;;;;4918561;29;20562;-70
2023/09/07 11:00:35;;;;;;;4.32;3.92;;;34.50;56.30;;;;;;4918459;29;20209;-70
2023/09/07 11:03:10;;;;;;;5.45;3.75;;;34.90;53.30;;;;;;4918642;29;20201;-70
2023/09/07 11:05:38;;;;;;;4.90;3.80;;;35.10;50.40;;;;;;4918496;29;20205;-70
2023/09/07 11:08:06;;;;;;;8.13;3.75;;;34.90;47.80;;;;;;4918568;29;20261;-71
2023/09/07 11:10:34;;;;;;;4.07;3.78;;;35.30;47.70;;;;;;4918326;29;20317;-71
2023/09/07 11:13:03;;;;;;;4.30;3.70;;;35.80;45.40;;;;;;4918263;29;20205;-70
2023/09/07 11:15:30;;;;;;;4.65;3.72;;;35.70;44.80;;;;;;4918427;29;20240;-70
2023/09/07 11:17:57;;;;;;;4.13;3.75;;;35.80;43.80;;;;;;4918092;29;20725;-70
2023/09/07 11:20:25;;;;;;;4.88;3.80;;;35.70;42.00;;;;;;4918199;29;20205;-70
2023/09/07 11:22:52;;;;;;;4.30;3.65;;;35.90;42.80;;;;;;4918115;29;20649;-71
2023/09/07 11:25:20;;;;;;;4.55;3.65;;;35.90;40.90;;;;;;4918063;29;20206;-70
2023/09/07 11:27:46;;;;;;;6.45;4.00;;;35.90;42.20;;;;;;4918030;29;20202;-70
2023/09/07 11:30:13;;;;;;;5.80;3.80;;;36.40;41.40;;;;;;4917837;29;20222;-69
2023/09/07 11:32:42;;;;;;;4.70;4.15;;;36.70;41.10;;;;;;4917742;29;20246;-70
2023/09/07 11:35:10;;;;;;;4.20;3.88;;;37.10;39.80;;;;;;4918127;29;20220;-70
2023/09/07 11:37:40;;;;;;;4.05;3.67;;;37.40;39.40;;;;;;4917869;29;20198;-70
2023/09/07 11:40:12;;;;;;;4.13;3.80;;;37.60;37.70;;;;;;4917761;29;20204;-70
2023/09/07 11:42:38;;;;;;;4.50;3.80;;;37.60;36.80;;;;;;4917931;29;20205;-70
2023/09/07 11:45:07;;;;;;;4.20;3.88;;;37.60;36.00;;;;;;4917815;29;20198;-70
2023/09/07 11:47:34;;;;;;;4.10;3.70;;;37.60;35.50;;;;;;4917809;29;20206;-70
2023/09/07 11:50:01;;;;;;;4.88;3.50;;;38.00;34.30;;;;;;4917543;29;20258;-70
2023/09/07 11:52:27;;;;;;;4.38;4.07;;;38.40;34.00;;;;;;4917504;29;20262;-70
2023/09/07 11:54:55;;;;;;;4.25;3.85;;;38.70;32.10;;;;;;4917553;29;20229;-70
2023/09/07 11:57:22;;;;;;;4.07;3.78;;;38.90;31.00;;;;;;4917430;29;20732;-70
2023/09/07 11:59:48;;;;;;;4.28;3.97;;;39.10;30.30;;;;;;4917175;29;20661;-70
2023/09/07 12:02:17;;;;;;;4.95;4.05;;;38.10;29.00;;;;;;4917604;29;20204;-70
2023/09/07 12:04:44;;;;;;;4.40;4.00;;;38.50;29.70;;;;;;4917683;29;20217;-70
2023/09/07 12:07:11;;;;;;;4.40;4.00;;;38.40;28.30;;;;;;4917181;29;20198;-70
2023/09/07 12:09:38;;;;;;;4.75;3.90;;;38.90;28.40;;;;;;4917376;29;20277;-70
2023/09/07 12:12:07;;;;;;;3.85;3.55;;;39.00;27.40;;;;;;4917296;29;20229;-70
2023/09/07 12:14:33;;;;;;;4.28;3.88;;;39.70;26.90;;;;;;4918326;29;20202;-70
2023/09/07 12:17:00;;;;;;;4.40;3.42;;;39.70;26.40;;;;;;4917294;29;20277;-70
2023/09/07 12:19:26;;;;;;;4.13;3.83;;;40.10;26.00;;;;;;4917097;29;20258;-70
2023/09/07 12:21:53;;;;;;;6.20;4.10;;;40.70;25.70;;;;;;4917117;29;20214;-70
2023/09/07 12:24:19;;;;;;;4.47;3.67;;;40.90;25.00;;;;;;4917192;29;20237;-70
2023/09/07 12:26:46;;;;;;;4.25;3.90;;;41.30;24.50;;;;;;4916968;29;20661;-70
2023/09/07 12:29:14;;;;;;;3.95;3.65;;;41.20;24.60;;;;;;4917027;29;20202;-70
2023/09/07 12:31:41;;;;;;;5.05;3.63;;;41.60;24.00;;;;;;4916798;29;20780;-70
2023/09/07 12:34:08;;;;;;;4.00;3.65;;;41.20;23.70;;;;;;4916848;29;20201;-71
2023/09/07 12:36:35;;;;;;;4.15;3.55;;;41.40;23.20;;;;;;4916742;29;20205;-70